Time;durP1;ratioP1;P1;durP2;ratioP2;P2;SDS_P1;SDS_P2;PMS_P1;PMS_P2;Temp;Humidity;BMP_temperature;BMP_pressure;BME280_temperature;BME280_humidity;BME280_pressure;Samples;Min_cycle;Max_cycle;Signal;HPM_P1;HPM_P2
2022/12/15 00:39:40;;;;;;;34.03;21.87;;;6.00;58.20;;;;;;4985048;28;20865;-58
2022/12/15 00:42:07;;;;;;;35.10;22.07;;;6.00;58.10;;;;;;4992218;28;20475;-59
2022/12/15 00:44:33;;;;;;;39.37;24.70;;;6.00;58.00;;;;;;4989780;28;20201;-59
2022/12/15 00:46:58;;;;;;;31.50;22.70;;;6.00;58.00;;;;;;4988751;28;20441;-59
2022/12/15 01:22:25;;;;;;;36.83;25.83;;;5.90;57.50;;;;;;4991123;28;20510;-59
2022/12/15 01:24:51;;;;;;;36.57;24.97;;;6.00;57.50;;;;;;4982564;28;20821;-59
2022/12/15 01:27:17;;;;;;;38.77;22.93;;;6.00;57.30;;;;;;4988796;28;20199;-59
2022/12/15 01:29:42;;;;;;;33.80;21.97;;;6.00;57.20;;;;;;4987446;28;20261;-59
2022/12/15 01:32:08;;;;;;;30.20;21.37;;;6.00;57.20;;;;;;4988570;28;20681;-59
2022/12/15 01:34:34;;;;;;;36.47;22.27;;;6.00;57.20;;;;;;4990194;28;20226;-59
2022/12/15 01:36:59;;;;;;;33.93;22.40;;;6.00;57.10;;;;;;4990361;28;20953;-58
2022/12/15 01:40:43;;;;;;;34.23;20.97;;;6.00;57.10;;;;;;4990986;28;20236;-59
2022/12/15 01:42:12;;;;;;;33.87;22.13;;;6.00;57.30;;;;;;4990614;28;20241;-59
2022/12/15 01:44:38;;;;;;;33.50;22.50;;;6.00;57.90;;;;;;4991413;28;20497;-59
2022/12/15 01:47:04;;;;;;;36.33;22.47;;;6.00;57.20;;;;;;4987126;28;20549;-58
2022/12/15 01:49:31;;;;;;;37.30;21.80;;;6.00;57.20;;;;;;4984709;28;20638;-59
2022/12/15 01:52:04;;;;;;;31.73;21.67;;;6.00;57.30;;;;;;4986238;28;20449;-59
2022/12/15 01:54:44;;;;;;;36.43;21.33;;;6.00;57.30;;;;;;4987868;28;20489;-59
2022/12/15 01:57:17;;;;;;;35.50;20.73;;;6.00;57.10;;;;;;4987887;28;20475;-59
2022/12/15 01:59:49;;;;;;;36.13;19.60;;;6.00;56.90;;;;;;4988667;28;20446;-58
2022/12/15 02:02:16;;;;;;;32.97;21.13;;;6.00;56.70;;;;;;4984926;28;20440;-59
2022/12/15 02:04:43;;;;;;;38.17;22.07;;;6.00;56.50;;;;;;4988990;28;20441;-59
2022/12/15 02:07:16;;;;;;;29.00;20.00;;;6.00;56.40;;;;;;4986467;28;20556;-58
2022/12/15 02:09:44;;;;;;;41.87;20.80;;;6.00;56.30;;;;;;4989598;28;20801;-59
2022/12/15 02:12:57;;;;;;;40.67;21.90;;;5.90;56.40;;;;;;4979395;28;20442;-59
2022/12/15 02:15:39;;;;;;;36.50;21.03;;;5.90;56.40;;;;;;4992635;28;20528;-59
2022/12/15 02:18:34;;;;;;;34.20;23.03;;;6.00;56.40;;;;;;4986876;28;20454;-59
2022/12/15 02:21:28;;;;;;;30.93;20.63;;;6.00;56.50;;;;;;4986883;28;20438;-58
2022/12/15 02:24:32;;;;;;;31.50;20.63;;;5.90;56.40;;;;;;4987349;28;20449;-59
2022/12/15 02:27:21;;;;;;;33.87;19.90;;;5.90;56.50;;;;;;4988627;28;20893;-59
2022/12/15 02:30:10;;;;;;;34.10;21.03;;;5.90;56.60;;;;;;4985869;28;20446;-59
2022/12/15 02:32:57;;;;;;;33.37;20.83;;;5.90;56.80;;;;;;4984431;28;20449;-59
2022/12/15 02:35:45;;;;;;;31.13;21.00;;;5.90;56.60;;;;;;4980330;28;20485;-58
2022/12/15 02:38:11;;;;;;;31.20;21.73;;;5.90;56.60;;;;;;4985290;28;20932;-59
2022/12/15 02:40:37;;;;;;;33.07;21.57;;;5.90;56.50;;;;;;4989638;28;20454;-59
2022/12/15 02:43:05;;;;;;;33.27;21.30;;;5.90;56.60;;;;;;4986078;28;20201;-59
2022/12/15 02:45:36;;;;;;;33.17;20.80;;;5.90;56.70;;;;;;4990285;28;20813;-59
2022/12/15 02:48:19;;;;;;;34.53;21.60;;;5.90;56.80;;;;;;4984732;28;20446;-59
2022/12/15 02:51:00;;;;;;;36.83;23.10;;;5.90;56.80;;;;;;4986386;28;20452;-59
2022/12/15 02:53:51;;;;;;;30.50;20.10;;;5.90;56.70;;;;;;4987115;28;20441;-58
2022/12/15 02:56:47;;;;;;;38.60;21.87;;;5.90;56.80;;;;;;4985082;28;20481;-59
2022/12/15 02:59:23;;;;;;;33.50;21.60;;;5.90;56.80;;;;;;4974615;28;20837;-59
2022/12/15 03:01:59;;;;;;;35.13;21.07;;;5.90;56.70;;;;;;4989596;28;21505;-59
2022/12/15 03:04:26;;;;;;;32.50;21.30;;;5.90;56.70;;;;;;4991519;28;20453;-59
2022/12/15 03:06:56;;;;;;;33.23;20.47;;;5.90;56.70;;;;;;4990810;28;20497;-59
2022/12/15 03:09:22;;;;;;;31.90;19.93;;;5.90;56.70;;;;;;4989369;28;20521;-59
2022/12/15 03:11:48;;;;;;;34.37;19.80;;;5.90;56.70;;;;;;4990211;28;20452;-58
2022/12/15 03:14:14;;;;;;;32.93;21.20;;;5.90;56.60;;;;;;4989506;28;20222;-59
2022/12/15 03:16:39;;;;;;;33.17;22.33;;;5.90;56.60;;;;;;4989764;28;20342;-59
2022/12/15 03:19:05;;;;;;;36.17;25.83;;;5.90;56.60;;;;;;4991768;28;20194;-59
2022/12/15 03:21:30;;;;;;;38.10;26.37;;;5.90;56.70;;;;;;4991363;28;20206;-59
2022/12/15 03:23:56;;;;;;;35.23;22.53;;;5.90;56.70;;;;;;4988615;28;20282;-58
2022/12/15 03:26:21;;;;;;;39.10;22.37;;;5.90;56.70;;;;;;4988394;28;20198;-59
2022/12/15 03:28:47;;;;;;;36.30;21.80;;;5.90;56.70;;;;;;4989916;28;20206;-59
2022/12/15 03:31:13;;;;;;;37.87;22.50;;;5.90;56.70;;;;;;4990425;28;20198;-59
2022/12/15 03:33:38;;;;;;;32.97;20.60;;;5.90;56.70;;;;;;4989903;28;20538;-59
2022/12/15 03:36:04;;;;;;;32.47;20.30;;;5.90;56.70;;;;;;4989275;28;20190;-59
2022/12/15 03:38:29;;;;;;;39.03;21.00;;;5.90;56.80;;;;;;4988530;28;20195;-59
2022/12/15 03:40:55;;;;;;;38.23;21.00;;;5.90;56.80;;;;;;4990196;28;20462;-59
2022/12/15 03:43:21;;;;;;;39.57;22.30;;;5.90;56.60;;;;;;4989149;28;20199;-59
2022/12/15 03:45:47;;;;;;;32.83;19.40;;;5.90;56.50;;;;;;4988156;28;20284;-59
2022/12/15 03:48:12;;;;;;;30.60;20.20;;;5.90;56.40;;;;;;4989741;28;20191;-59
2022/12/15 03:50:38;;;;;;;31.10;20.63;;;6.00;56.40;;;;;;4989673;28;20249;-59
2022/12/15 03:53:04;;;;;;;34.97;21.47;;;5.90;56.30;;;;;;4985066;28;20198;-59
2022/12/15 03:55:29;;;;;;;34.00;20.63;;;6.00;56.30;;;;;;4987976;28;20305;-59
2022/12/15 03:57:56;;;;;;;30.97;20.40;;;6.00;56.40;;;;;;4985062;28;20945;-59
2022/12/15 04:00:25;;;;;;;35.20;22.93;;;6.00;56.60;;;;;;4987408;28;20191;-59
2022/12/15 04:02:52;;;;;;;35.57;22.27;;;6.00;57.20;;;;;;4984072;28;20473;-59
2022/12/15 04:05:24;;;;;;;31.80;21.00;;;6.00;56.60;;;;;;4989694;28;20525;-59
2022/12/15 04:07:50;;;;;;;33.13;20.93;;;6.00;56.70;;;;;;4990125;28;20472;-59
2022/12/15 04:10:16;;;;;;;33.93;21.30;;;6.00;56.60;;;;;;4989964;28;20446;-59
2022/12/15 04:12:41;;;;;;;34.17;21.70;;;5.90;57.30;;;;;;4990034;28;20289;-59
2022/12/15 04:15:09;;;;;;;33.63;20.73;;;6.00;57.10;;;;;;4987822;28;20293;-59
2022/12/15 04:17:35;;;;;;;38.70;20.67;;;6.00;56.90;;;;;;4989621;28;20231;-59
2022/12/15 04:20:10;;;;;;;35.50;21.00;;;6.00;56.80;;;;;;4987900;28;21035;-59
2022/12/15 04:22:41;;;;;;;33.17;21.40;;;6.00;56.70;;;;;;4989790;28;20461;-59
2022/12/15 05:33:40;;;;;;;31.70;20.10;;;6.00;56.90;;;;;;4986451;28;20468;-59
2022/12/15 05:36:06;;;;;;;30.37;20.47;;;6.00;56.90;;;;;;4991265;28;20445;-59
2022/12/15 05:38:32;;;;;;;33.30;21.07;;;6.00;56.90;;;;;;4990448;28;20194;-59
2022/12/15 05:40:58;;;;;;;37.10;21.77;;;6.00;56.70;;;;;;4991270;28;20438;-59
2022/12/15 05:43:23;;;;;;;34.60;20.77;;;6.00;57.10;;;;;;4983025;28;20229;-59
2022/12/15 05:45:49;;;;;;;37.47;21.63;;;6.00;56.80;;;;;;4986520;28;20464;-59
2022/12/15 05:48:15;;;;;;;43.70;23.80;;;6.00;56.70;;;;;;4989179;28;20544;-59
2022/12/15 05:50:40;;;;;;;34.93;22.13;;;6.00;57.00;;;;;;4988161;28;20197;-59
2022/12/15 05:53:06;;;;;;;36.83;22.37;;;6.00;57.10;;;;;;4986788;28;20661;-59
2022/12/15 05:55:31;;;;;;;38.20;23.40;;;6.00;57.10;;;;;;4989401;28;20226;-59
2022/12/15 05:57:57;;;;;;;42.23;22.67;;;6.00;57.10;;;;;;4990029;28;20230;-59
2022/12/15 06:00:22;;;;;;;31.67;20.10;;;6.10;57.20;;;;;;4991063;28;20281;-59
2022/12/15 06:02:48;;;;;;;39.63;21.43;;;6.10;57.20;;;;;;4982510;28;20195;-59
2022/12/15 06:05:14;;;;;;;38.47;21.03;;;6.10;57.20;;;;;;4986565;28;20226;-59
2022/12/15 06:07:42;;;;;;;37.90;21.83;;;6.10;57.20;;;;;;4992479;28;20450;-59
2022/12/15 06:10:09;;;;;;;37.67;22.10;;;6.00;57.30;;;;;;4985837;28;20202;-59
2022/12/15 06:12:34;;;;;;;36.93;21.97;;;6.10;57.40;;;;;;4980356;28;20434;-59
2022/12/15 06:15:00;;;;;;;37.13;21.77;;;6.10;57.40;;;;;;4984603;28;20493;-59
2022/12/15 06:17:26;;;;;;;32.53;20.93;;;6.10;57.40;;;;;;4988433;28;20245;-59
2022/12/15 06:19:51;;;;;;;33.63;19.50;;;6.10;57.20;;;;;;4996882;28;20199;-60
2022/12/15 06:22:17;;;;;;;25.77;15.33;;;6.10;57.00;;;;;;4983938;28;20223;-59
2022/12/15 06:24:42;;;;;;;34.67;20.20;;;6.30;58.60;;;;;;4988849;28;20199;-59
2022/12/15 06:27:08;;;;;;;39.30;22.00;;;6.70;61.20;;;;;;4989098;28;20650;-59
2022/12/15 06:29:33;;;;;;;30.83;19.53;;;7.10;60.30;;;;;;4988278;28;20557;-60
2022/12/15 06:31:59;;;;;;;33.23;21.63;;;7.20;57.70;;;;;;4984715;28;20201;-59
2022/12/15 06:34:25;;;;;;;37.73;21.50;;;7.20;56.20;;;;;;4987935;28;20218;-59
2022/12/15 06:36:50;;;;;;;41.27;22.77;;;7.20;55.00;;;;;;4987677;28;20202;-59
2022/12/15 06:39:16;;;;;;;34.30;20.87;;;7.00;54.80;;;;;;4986739;28;20205;-59
2022/12/15 06:41:42;;;;;;;32.60;22.63;;;6.90;54.70;;;;;;4989159;28;20191;-59
2022/12/15 06:44:12;;;;;;;40.73;22.77;;;6.80;54.90;;;;;;4988051;28;20280;-59
2022/12/15 06:46:37;;;;;;;37.63;22.73;;;6.70;55.00;;;;;;4978908;28;20453;-59
2022/12/15 06:49:03;;;;;;;35.23;21.10;;;6.70;55.30;;;;;;4980342;28;20441;-59
2022/12/15 06:51:29;;;;;;;39.10;22.57;;;6.60;55.50;;;;;;4985243;28;20202;-59
2022/12/15 06:53:55;;;;;;;34.53;21.00;;;6.50;55.60;;;;;;4991648;28;20553;-59
2022/12/15 06:56:25;;;;;;;33.73;21.20;;;6.50;55.80;;;;;;4982778;28;20194;-59
2022/12/15 06:58:52;;;;;;;37.20;21.47;;;6.40;55.90;;;;;;4989655;28;20253;-59
2022/12/15 07:01:19;;;;;;;33.17;21.90;;;6.40;56.00;;;;;;4989894;28;20445;-59
2022/12/15 07:03:45;;;;;;;38.03;26.00;;;6.30;55.90;;;;;;4989937;28;20965;-59
2022/12/15 07:06:14;;;;;;;34.17;21.53;;;6.20;56.00;;;;;;4984501;28;20469;-59
2022/12/15 07:08:39;;;;;;;34.20;21.70;;;6.10;56.20;;;;;;4989758;28;20642;-59
2022/12/15 07:11:07;;;;;;;35.20;20.50;;;6.10;56.50;;;;;;4988835;28;20441;-59
2022/12/15 07:13:33;;;;;;;36.73;22.00;;;6.00;56.60;;;;;;4987733;28;20318;-59
2022/12/15 07:15:59;;;;;;;32.83;21.40;;;6.10;56.70;;;;;;4990057;28;20485;-59
2022/12/15 07:18:25;;;;;;;37.53;23.20;;;6.10;56.70;;;;;;4996928;28;20463;-59
2022/12/15 07:20:51;;;;;;;34.57;21.27;;;6.10;56.70;;;;;;4998854;28;20442;-59
2022/12/15 07:23:17;;;;;;;39.23;24.13;;;6.10;56.70;;;;;;4989784;28;20248;-59
2022/12/15 07:25:42;;;;;;;42.93;28.20;;;6.10;56.70;;;;;;4990089;28;20186;-59
2022/12/15 07:28:08;;;;;;;43.73;27.00;;;6.10;56.70;;;;;;4989259;28;20460;-59
2022/12/15 07:30:34;;;;;;;36.00;23.47;;;6.10;56.80;;;;;;4983126;28;20191;-59
2022/12/15 07:33:00;;;;;;;41.37;24.57;;;6.10;56.80;;;;;;4983726;28;20191;-59
2022/12/15 07:35:26;;;;;;;38.10;22.07;;;6.10;56.70;;;;;;4982154;28;20493;-59
2022/12/15 07:37:51;;;;;;;37.27;23.40;;;6.10;56.70;;;;;;4989664;28;20448;-59
2022/12/15 07:40:17;;;;;;;34.37;22.17;;;6.10;56.60;;;;;;4988506;28;20195;-59
2022/12/15 07:42:43;;;;;;;38.13;22.80;;;6.10;56.70;;;;;;4986345;28;20204;-60
2022/12/15 07:45:10;;;;;;;36.80;23.40;;;6.20;56.80;;;;;;4988333;28;20206;-59
2022/12/15 07:47:35;;;;;;;35.37;20.90;;;6.20;56.60;;;;;;4987263;28;20447;-59
2022/12/15 07:50:02;;;;;;;34.77;20.03;;;6.20;56.60;;;;;;4987801;28;20818;-59
2022/12/15 07:52:27;;;;;;;36.83;22.43;;;6.20;56.40;;;;;;4988368;28;20442;-59
2022/12/15 07:54:53;;;;;;;32.30;19.43;;;6.30;56.20;;;;;;4987524;28;20500;-59
2022/12/15 07:57:19;;;;;;;30.83;19.33;;;6.30;56.10;;;;;;4988252;28;20194;-59
2022/12/15 07:59:45;;;;;;;34.70;20.50;;;6.30;56.10;;;;;;4984527;28;20198;-59
2022/12/15 08:02:11;;;;;;;33.73;19.63;;;6.20;56.10;;;;;;4988183;28;20190;-59
2022/12/15 08:04:37;;;;;;;33.40;20.30;;;6.20;56.20;;;;;;4994054;28;20438;-58
2022/12/15 08:07:03;;;;;;;37.77;21.47;;;6.30;56.30;;;;;;4993954;28;20453;-59
2022/12/15 08:09:30;;;;;;;34.60;19.43;;;6.30;56.30;;;;;;4994773;28;20441;-59
2022/12/15 08:11:56;;;;;;;38.43;19.93;;;6.30;55.90;;;;;;4992307;28;20463;-59
2022/12/15 08:14:22;;;;;;;40.93;21.20;;;6.10;56.10;;;;;;4994941;28;20968;-59
2022/12/15 08:16:48;;;;;;;38.43;20.33;;;6.20;56.30;;;;;;4994373;28;20501;-59
2022/12/15 08:19:15;;;;;;;30.93;18.50;;;6.10;56.10;;;;;;4995487;28;20187;-59
2022/12/15 08:21:42;;;;;;;35.90;19.30;;;6.00;56.10;;;;;;4992674;28;20441;-59
2022/12/15 08:24:08;;;;;;;40.70;20.97;;;5.80;56.30;;;;;;4993500;28;20461;-59
2022/12/15 08:26:36;;;;;;;39.80;22.07;;;5.80;57.40;;;;;;4994076;28;20504;-59
2022/12/15 08:29:04;;;;;;;36.23;21.03;;;5.90;56.70;;;;;;4992793;28;20929;-59
2022/12/15 08:31:32;;;;;;;38.43;20.87;;;6.00;56.40;;;;;;4994031;28;20452;-59
2022/12/15 08:33:58;;;;;;;46.63;25.23;;;6.10;56.30;;;;;;4993718;28;20461;-59
2022/12/15 08:36:24;;;;;;;44.80;23.70;;;6.20;56.10;;;;;;4994231;28;20448;-60
2022/12/15 08:38:50;;;;;;;42.17;21.77;;;6.30;56.00;;;;;;4994934;28;20417;-59
2022/12/15 08:41:22;;;;;;;45.43;23.00;;;6.40;55.80;;;;;;4992861;28;20446;-59
2022/12/15 08:43:49;;;;;;;33.63;20.43;;;6.40;55.80;;;;;;4993557;28;21025;-59
2022/12/15 08:46:16;;;;;;;39.60;20.83;;;6.40;55.70;;;;;;4990378;28;20468;-59
2022/12/15 08:48:43;;;;;;;35.47;20.17;;;6.50;56.30;;;;;;4992976;28;20504;-59
2022/12/15 08:51:09;;;;;;;35.37;20.13;;;6.50;55.60;;;;;;4993061;28;20438;-59
2022/12/15 08:53:35;;;;;;;34.03;19.57;;;6.50;55.60;;;;;;4994502;28;20445;-59
2022/12/15 08:56:06;;;;;;;36.10;20.10;;;6.60;55.80;;;;;;4988878;28;20496;-59
2022/12/15 08:58:32;;;;;;;33.60;20.37;;;6.60;55.70;;;;;;4986844;28;20536;-59
2022/12/15 09:01:03;;;;;;;31.30;19.67;;;6.70;55.60;;;;;;4988778;28;20442;-59
2022/12/15 09:03:29;;;;;;;32.13;20.07;;;6.70;55.60;;;;;;4986363;28;20477;-59
2022/12/15 09:05:56;;;;;;;36.23;21.03;;;6.70;55.50;;;;;;4988916;28;20457;-59
2022/12/15 09:08:22;;;;;;;33.63;19.90;;;6.70;55.10;;;;;;4984962;28;20217;-59
2022/12/15 09:10:48;;;;;;;35.23;20.47;;;6.70;55.30;;;;;;4990102;28;20445;-58
2022/12/15 09:13:13;;;;;;;36.37;20.93;;;6.70;55.50;;;;;;4991729;28;20442;-59
2022/12/15 09:15:42;;;;;;;36.97;20.63;;;6.70;55.30;;;;;;4991673;28;20492;-59
2022/12/15 09:18:08;;;;;;;31.37;20.10;;;6.80;55.30;;;;;;4991469;28;20207;-58
2022/12/15 09:20:33;;;;;;;33.33;19.83;;;6.70;55.00;;;;;;4989872;28;20453;-58
2022/12/15 09:22:59;;;;;;;36.80;20.37;;;6.80;55.00;;;;;;4991687;28;20799;-58
2022/12/15 09:25:24;;;;;;;30.27;18.70;;;6.80;54.90;;;;;;4989813;28;20206;-58
2022/12/15 09:27:50;;;;;;;33.97;19.43;;;6.90;54.90;;;;;;4991180;28;20205;-58
2022/12/15 09:30:16;;;;;;;33.43;20.57;;;6.90;55.10;;;;;;4987312;28;20205;-58
2022/12/15 09:32:41;;;;;;;35.10;21.23;;;6.90;55.60;;;;;;4991140;28;20757;-58
2022/12/15 09:35:07;;;;;;;39.83;22.90;;;6.90;55.70;;;;;;4990402;28;20222;-58
2022/12/15 09:37:32;;;;;;;34.50;20.70;;;7.10;55.70;;;;;;4992178;28;20538;-59
2022/12/15 09:39:58;;;;;;;31.60;19.70;;;7.10;55.50;;;;;;4991492;28;20198;-58
2022/12/15 09:42:27;;;;;;;37.20;22.20;;;7.20;55.00;;;;;;4992832;28;20210;-58
2022/12/15 09:45:06;;;;;;;28.80;19.30;;;7.30;54.80;;;;;;4987664;28;20724;-58
2022/12/15 09:47:51;;;;;;;37.33;21.67;;;7.30;54.70;;;;;;4988614;28;20457;-59
2022/12/15 09:50:24;;;;;;;33.40;20.23;;;7.40;54.60;;;;;;4990876;28;20540;-58
2022/12/15 09:52:53;;;;;;;28.70;18.63;;;7.40;54.30;;;;;;4988525;28;20441;-58
2022/12/15 09:55:23;;;;;;;35.03;22.30;;;7.40;54.10;;;;;;4990474;28;20493;-58
2022/12/15 09:57:53;;;;;;;31.30;21.23;;;7.40;54.10;;;;;;4986619;28;21296;-59
2022/12/15 10:00:20;;;;;;;32.80;21.73;;;7.40;54.50;;;;;;4991009;28;20456;-59
2022/12/15 10:03:13;;;;;;;36.93;22.70;;;7.50;54.60;;;;;;4992109;28;20472;-58
2022/12/15 10:05:48;;;;;;;34.33;21.63;;;7.50;54.30;;;;;;4991512;28;21202;-59
2022/12/15 10:08:14;;;;;;;39.00;21.80;;;7.50;53.90;;;;;;4988235;28;20448;-59
2022/12/15 10:10:42;;;;;;;34.00;21.13;;;7.50;53.70;;;;;;4990978;28;20446;-59
2022/12/15 10:13:37;;;;;;;35.73;20.40;;;7.50;53.80;;;;;;4992532;28;20446;-59
2022/12/15 10:16:26;;;;;;;33.43;20.50;;;7.50;54.00;;;;;;4985504;28;20529;-59
2022/12/15 10:18:58;;;;;;;34.20;20.67;;;7.50;53.80;;;;;;4982772;28;20453;-58
2022/12/15 10:21:27;;;;;;;39.50;22.43;;;7.50;53.70;;;;;;4992006;28;20461;-59
2022/12/15 10:23:56;;;;;;;34.27;21.97;;;7.50;53.50;;;;;;4991844;28;20801;-59
2022/12/15 10:26:30;;;;;;;35.47;19.63;;;7.50;53.40;;;;;;4990773;28;20794;-59
2022/12/15 10:29:37;;;;;;;35.43;20.03;;;7.50;53.40;;;;;;4989701;28;20543;-58
2022/12/15 10:32:11;;;;;;;32.40;20.33;;;7.60;53.50;;;;;;4977556;28;20512;-58
2022/12/15 10:34:37;;;;;;;36.83;23.60;;;7.60;53.90;;;;;;4988209;28;20493;-58
2022/12/15 10:37:04;;;;;;;39.23;21.57;;;7.60;53.80;;;;;;4986146;28;20848;-58
2022/12/15 10:39:44;;;;;;;37.53;20.60;;;7.50;53.90;;;;;;4989010;28;20558;-58
2022/12/15 10:42:28;;;;;;;34.27;20.97;;;7.60;53.90;;;;;;4986886;28;20607;-58
2022/12/15 10:44:56;;;;;;;35.00;21.10;;;7.50;54.20;;;;;;4985382;28;20445;-58
2022/12/15 10:47:27;;;;;;;35.93;23.30;;;7.50;54.50;;;;;;4986470;28;20496;-58
2022/12/15 10:49:54;;;;;;;34.07;20.27;;;7.60;54.80;;;;;;4978942;28;20460;-59
2022/12/15 10:52:34;;;;;;;31.43;19.73;;;7.60;54.60;;;;;;4984722;28;20433;-56
2022/12/15 10:54:59;;;;;;;38.37;22.60;;;7.70;54.30;;;;;;4982915;28;20489;-56
2022/12/15 10:57:29;;;;;;;31.60;21.57;;;7.60;54.00;;;;;;4985255;28;20492;-56
2022/12/15 11:00:15;;;;;;;32.97;20.50;;;7.60;54.10;;;;;;4988247;28;20195;-57
2022/12/15 11:02:41;;;;;;;31.23;20.57;;;7.60;54.10;;;;;;4988342;28;20508;-56
2022/12/15 11:05:14;;;;;;;33.73;21.00;;;7.60;54.10;;;;;;4985612;28;20472;-57
2022/12/15 11:07:54;;;;;;;35.60;21.60;;;7.60;54.10;;;;;;4989000;28;21168;-57
2022/12/15 11:13:22;;;;;;;35.67;20.77;;;7.60;54.10;;;;;;4988656;28;20472;-57
2022/12/15 11:15:55;;;;;;;33.27;21.23;;;7.30;54.60;;;;;;4989967;28;20495;-55
2022/12/15 11:18:45;;;;;;;37.40;22.23;;;7.30;54.90;;;;;;4989764;28;20441;-57
2022/12/15 11:21:20;;;;;;;35.70;21.87;;;7.40;54.70;;;;;;4986954;28;20983;-57
2022/12/15 11:24:04;;;;;;;35.70;22.17;;;7.50;54.80;;;;;;4983132;28;20881;-56
2022/12/15 11:26:51;;;;;;;33.47;19.60;;;7.40;54.70;;;;;;4988079;28;20848;-55
2022/12/15 11:29:20;;;;;;;33.73;21.00;;;7.20;55.20;;;;;;4990809;28;20533;-56
2022/12/15 11:31:47;;;;;;;32.90;21.17;;;7.30;55.40;;;;;;4988091;28;20802;-56
2022/12/15 11:34:37;;;;;;;36.97;21.10;;;7.40;55.20;;;;;;4988290;28;20556;-54
2022/12/15 11:37:17;;;;;;;32.27;19.80;;;7.50;55.10;;;;;;4981138;28;20809;-56
2022/12/15 11:40:17;;;;;;;32.47;19.37;;;7.60;55.60;;;;;;4988985;28;20452;-55
2022/12/15 11:43:10;;;;;;;30.03;19.53;;;7.10;54.50;;;;;;4989834;28;20480;-58
2022/12/15 11:45:44;;;;;;;28.30;18.97;;;6.90;55.30;;;;;;4993574;28;20532;-58
2022/12/15 11:48:25;;;;;;;29.17;19.47;;;6.90;55.60;;;;;;4993830;28;20581;-60
2022/12/15 11:51:16;;;;;;;29.63;17.53;;;7.10;55.70;;;;;;4994419;28;20453;-59
2022/12/15 11:54:13;;;;;;;31.37;19.80;;;7.20;55.50;;;;;;4986731;28;22304;-58
2022/12/15 11:56:46;;;;;;;28.60;18.50;;;7.20;55.40;;;;;;4995096;28;20485;-58
2022/12/15 11:59:30;;;;;;;31.63;19.07;;;7.20;55.50;;;;;;4996083;28;20524;-58
2022/12/15 12:02:16;;;;;;;28.30;18.43;;;7.40;55.40;;;;;;4997452;28;21053;-58
2022/12/15 12:04:56;;;;;;;36.00;20.70;;;7.50;55.00;;;;;;4994075;28;20446;-59
2022/12/15 12:07:35;;;;;;;31.80;19.60;;;7.60;54.50;;;;;;4994770;28;20446;-59
2022/12/15 12:10:12;;;;;;;36.17;20.90;;;7.60;54.60;;;;;;4996859;28;20462;-59
2022/12/15 12:12:51;;;;;;;35.73;20.40;;;7.60;54.70;;;;;;4994957;28;20891;-58
2022/12/15 12:15:48;;;;;;;33.10;20.23;;;7.60;54.60;;;;;;4994817;28;20488;-59
2022/12/15 12:18:22;;;;;;;34.77;21.50;;;7.60;54.70;;;;;;4995798;28;20540;-59
2022/12/15 12:20:51;;;;;;;34.93;22.37;;;7.60;54.70;;;;;;4996660;28;20797;-59
2022/12/15 12:23:25;;;;;;;34.27;19.83;;;7.70;54.60;;;;;;4995567;28;20438;-59
2022/12/15 12:26:15;;;;;;;32.93;19.47;;;7.70;54.50;;;;;;4996062;28;20452;-58
2022/12/15 12:28:48;;;;;;;33.40;20.47;;;7.80;54.50;;;;;;4990919;28;20441;-59
2022/12/15 12:31:25;;;;;;;34.27;20.17;;;7.80;54.70;;;;;;4988280;28;20477;-59
2022/12/15 12:33:57;;;;;;;32.13;19.60;;;7.90;55.00;;;;;;4991700;28;20453;-59
2022/12/15 12:36:23;;;;;;;28.30;19.80;;;7.90;54.80;;;;;;4991694;28;20449;-58
2022/12/15 12:38:54;;;;;;;30.67;18.43;;;7.90;55.00;;;;;;4993382;28;20984;-59
2022/12/15 12:41:37;;;;;;;29.60;20.03;;;7.80;54.60;;;;;;4991006;28;20201;-59
2022/12/15 12:44:16;;;;;;;29.80;19.40;;;7.60;54.70;;;;;;4991936;28;20452;-59
2022/12/15 12:46:51;;;;;;;29.90;17.80;;;7.80;55.10;;;;;;4995688;28;20449;-59
2022/12/15 12:49:35;;;;;;;29.03;19.00;;;7.80;54.90;;;;;;4987025;28;20827;-58
2022/12/15 12:52:03;;;;;;;29.40;19.80;;;7.80;55.00;;;;;;4989327;28;20454;-59
2022/12/15 12:54:34;;;;;;;31.83;18.87;;;7.70;55.10;;;;;;4984134;28;20509;-59
2022/12/15 12:57:09;;;;;;;26.67;18.60;;;7.70;54.90;;;;;;4992775;28;20456;-59
2022/12/15 12:59:39;;;;;;;28.50;17.87;;;7.80;55.10;;;;;;4981547;28;20464;-59
2022/12/15 13:02:14;;;;;;;28.80;18.23;;;7.70;54.70;;;;;;4991418;28;20442;-59
2022/12/15 13:04:43;;;;;;;26.47;18.77;;;7.50;54.90;;;;;;4988541;28;20954;-59
2022/12/15 13:07:33;;;;;;;27.67;17.47;;;7.70;54.80;;;;;;4989838;28;21007;-59
2022/12/15 13:10:08;;;;;;;30.47;18.10;;;7.90;54.90;;;;;;4984231;28;20453;-59
2022/12/15 13:12:53;;;;;;;29.07;17.70;;;7.80;54.40;;;;;;4993004;28;20449;-59
2022/12/15 13:15:42;;;;;;;28.67;19.07;;;7.70;54.70;;;;;;4994325;28;20852;-59
2022/12/15 13:18:23;;;;;;;26.67;17.53;;;7.60;55.50;;;;;;4994249;28;20487;-59
2022/12/15 13:20:54;;;;;;;28.50;18.00;;;7.70;54.50;;;;;;4999784;28;20446;-59
2022/12/15 13:23:22;;;;;;;25.33;16.43;;;7.50;54.80;;;;;;4991361;28;20438;-59
2022/12/15 13:25:57;;;;;;;28.67;17.50;;;7.10;55.60;;;;;;4993212;28;20855;-59
2022/12/15 13:28:34;;;;;;;31.00;19.00;;;7.20;56.10;;;;;;4991164;28;20544;-59
2022/12/15 13:31:15;;;;;;;30.73;20.27;;;7.40;56.10;;;;;;4989522;28;20585;-59
2022/12/15 13:33:49;;;;;;;30.20;17.93;;;7.30;56.00;;;;;;4986819;28;20526;-59
2022/12/15 13:36:42;;;;;;;31.80;20.13;;;7.30;56.10;;;;;;4987787;28;20539;-59
2022/12/15 13:39:13;;;;;;;29.23;18.77;;;7.30;55.80;;;;;;4992725;28;20956;-59
2022/12/15 13:41:47;;;;;;;32.40;18.77;;;7.20;56.50;;;;;;4988317;28;20445;-59
2022/12/15 13:44:28;;;;;;;25.97;17.97;;;7.30;56.20;;;;;;4988532;28;20535;-59
2022/12/15 13:46:55;;;;;;;29.93;18.67;;;7.30;56.00;;;;;;4985481;28;20441;-60
2022/12/15 13:49:28;;;;;;;32.00;19.03;;;7.20;56.20;;;;;;4992095;28;20912;-59
2022/12/15 13:52:08;;;;;;;30.43;19.90;;;7.10;56.10;;;;;;4988789;28;20458;-59
2022/12/15 13:54:40;;;;;;;35.27;19.67;;;7.10;56.40;;;;;;4990553;28;20500;-59
2022/12/15 13:57:10;;;;;;;33.57;19.73;;;7.20;56.30;;;;;;4990273;28;20481;-59
2022/12/15 13:59:38;;;;;;;28.30;18.67;;;7.20;55.70;;;;;;4992396;28;20444;-59
2022/12/15 14:02:21;;;;;;;31.23;17.37;;;7.10;56.20;;;;;;4991912;28;20920;-59
2022/12/15 14:05:18;;;;;;;28.80;18.17;;;7.00;56.40;;;;;;4992904;28;20957;-59
2022/12/15 14:07:59;;;;;;;28.50;18.13;;;7.10;57.00;;;;;;4992810;28;20523;-59
2022/12/15 14:10:49;;;;;;;30.47;18.00;;;7.00;56.70;;;;;;4993627;28;20533;-59
2022/12/15 14:13:35;;;;;;;31.93;18.47;;;7.20;56.70;;;;;;4992103;28;20532;-59
2022/12/15 14:16:18;;;;;;;37.67;18.80;;;7.40;56.20;;;;;;4992436;28;20497;-58
2022/12/15 14:19:00;;;;;;;28.10;17.73;;;7.30;55.90;;;;;;5000051;28;20981;-59
2022/12/15 14:21:26;;;;;;;30.10;18.27;;;7.30;56.20;;;;;;4989521;28;22150;-58
2022/12/15 14:23:52;;;;;;;25.50;17.63;;;7.10;56.40;;;;;;4991711;28;20445;-59
2022/12/15 14:26:17;;;;;;;30.10;18.13;;;6.90;56.80;;;;;;4988631;28;20253;-59
2022/12/15 14:28:45;;;;;;;29.77;18.47;;;7.10;57.00;;;;;;4992457;28;20195;-58
2022/12/15 14:31:15;;;;;;;29.63;18.63;;;7.20;56.70;;;;;;4990660;28;20194;-59
2022/12/15 14:33:43;;;;;;;34.40;18.43;;;7.40;56.60;;;;;;4990383;28;20514;-58
2022/12/15 14:36:11;;;;;;;31.53;18.60;;;7.50;56.40;;;;;;4992086;28;21094;-59
2022/12/15 14:38:52;;;;;;;35.07;21.03;;;7.50;56.30;;;;;;4993227;28;20461;-58
2022/12/15 14:41:22;;;;;;;29.40;17.63;;;7.40;56.20;;;;;;4991480;28;20867;-59
2022/12/15 14:43:51;;;;;;;31.23;18.83;;;7.50;56.10;;;;;;4991686;28;20438;-58
2022/12/15 14:46:21;;;;;;;28.43;16.87;;;7.70;56.00;;;;;;4991705;28;20832;-59
2022/12/15 14:49:01;;;;;;;34.60;19.50;;;7.60;55.30;;;;;;4992202;28;20446;-58
2022/12/15 14:51:31;;;;;;;30.80;18.83;;;7.60;55.80;;;;;;4990290;28;20469;-59
2022/12/15 14:53:56;;;;;;;29.73;18.90;;;7.70;56.10;;;;;;4991096;28;20488;-59
2022/12/15 14:56:26;;;;;;;38.43;26.20;;;7.70;56.20;;;;;;4988599;28;20442;-59
2022/12/15 14:58:58;;;;;;;35.10;23.30;;;7.80;56.20;;;;;;4986855;28;20556;-58
2022/12/15 15:01:39;;;;;;;32.60;20.67;;;7.80;56.10;;;;;;4989456;28;20465;-58
2022/12/15 15:04:28;;;;;;;28.73;20.60;;;7.80;56.50;;;;;;4988318;28;20477;-58
2022/12/15 15:07:03;;;;;;;33.07;20.37;;;7.80;56.70;;;;;;4989748;28;20949;-58
2022/12/15 15:09:31;;;;;;;30.57;19.50;;;7.80;56.70;;;;;;4978560;28;20441;-58
2022/12/15 15:12:12;;;;;;;30.17;18.80;;;7.80;56.60;;;;;;4990352;28;20438;-58
2022/12/15 15:14:48;;;;;;;28.73;20.37;;;7.80;56.40;;;;;;4989043;28;20524;-58
2022/12/15 15:17:40;;;;;;;27.37;17.67;;;7.80;56.70;;;;;;4988805;28;20481;-58
2022/12/15 15:20:25;;;;;;;29.37;16.90;;;7.80;56.70;;;;;;4984299;28;20453;-58
2022/12/15 15:23:06;;;;;;;28.60;17.03;;;7.80;56.70;;;;;;4987225;28;20481;-58